1960 Tropical Low NOT_NAMED (1960063S14155)


IBTrACS version v04r00. Visit IBTrACS website for data access.
Please direct all questions to the IBTrACS Q and A forum

Storm track - Intensity - Wind Radii - Intensity Data - Source Data - All data

Summary Information

Storm ID 1960063S14155
Start Mar 3 11Z
End Mar 9 11Z
ATCF IDs ,SH161960
Track status Best track data.

Storm track plot

Map of storm track

Intensity plots

Map of storm track

Radial wind information

No radial wind information for this storm


Position and Intensity Table

BASIN ISO_TIME_________ NATURE LAT LON WMO PRES BOM PRES
degrees north degrees east mb mb
SP 1960-03-03 11:00:00 NR -13.50 154.50 1003 1003
SP 12:00:00 TS -13.52 154.50 1003
SP 15:00:00 TS -13.62 154.49 1003
SP 18:00:00 TS -13.71 154.48 1003
SP 21:00:00 TS -13.77 154.49 1003
SP 23:00:00 TS -13.64 154.47 1003 1003
SP 1960-03-04 00:00:00 TS -13.39 154.44 1002
SP 03:00:00 TS -13.42 154.47 1002
SP 06:00:00 TS -13.58 154.51 1002
SP 09:00:00 TS -13.82 154.50 1002
SP 11:00:00 TS -14.00 154.46 1002 1002
SP 12:00:00 TS -14.10 154.43 1001
SP 15:00:00 TS -14.44 154.32 1000
SP 17:00:00 TS -14.65 154.21 1000 1000
SP 18:00:00 TS -14.74 154.15 1000
SP 21:00:00 TS -14.95 153.93 1000
SP 23:00:00 TS -15.06 153.78 1000 1000
SP 1960-03-05 00:00:00 TS -15.10 153.72 1000
SP 03:00:00 TS -15.21 153.56 1000
SP 05:00:00 TS -15.27 153.46 1000 1000
SP 06:00:00 TS -15.29 153.41 1000
SP 09:00:00 TS -15.37 153.25 1000
SP 11:00:00 TS -15.41 153.12 1000 1000
SP 12:00:00 TS -15.43 153.05 1000
SP 15:00:00 TS -15.48 152.83 1000
SP 17:00:00 TS -15.51 152.68 1000 1000
SP 18:00:00 TS -15.52 152.61 1000
SP 21:00:00 TS -15.55 152.39 1000
SP 23:00:00 TS -15.56 152.23 1000 1000
SP 1960-03-06 00:00:00 TS -15.56 152.15 1000
SP 03:00:00 TS -15.58 151.89 1000
SP 05:00:00 TS -15.59 151.66 1000 1000
SP 06:00:00 TS -15.59 151.52 1000
SP 08:00:00 TS -15.60 151.20 1000 1000
SP 09:00:00 TS -15.61 151.05 1000
SP 11:00:00 TS -15.63 150.77 1000 1000
SP 12:00:00 TS -15.64 150.65 1000
SP 15:00:00 TS -15.68 150.37 1000
SP 17:00:00 TS -15.73 150.21 1000 1000
SP 18:00:00 TS -15.76 150.12 1000
SP 20:00:00 TS -15.85 149.95 1000 1000
SP 21:00:00 TS -15.90 149.88 1000
SP 23:00:00 TS -16.03 149.76 1000 1000
SP 1960-03-07 00:00:00 TS -16.11 149.70 1000
SP 03:00:00 TS -16.42 149.57 1000
SP 05:00:00 TS -16.65 149.49 1000 1000
SP 06:00:00 TS -16.77 149.45 1000
SP 09:00:00 TS -17.10 149.31 1000
SP 11:00:00 TS -17.32 149.19 1000 1000
SP 12:00:00 TS -17.42 149.10 1000
SP 15:00:00 TS -17.72 148.79 1000
SP 17:00:00 TS -17.89 148.56 1000 1000
SP 18:00:00 TS -17.97 148.44 1000
SP 21:00:00 TS -18.17 148.14 1000
SP 23:00:00 TS -18.26 147.96 1000 1000
SP 1960-03-08 00:00:00 TS -18.30 147.90 1000
SP 03:00:00 TS -18.39 147.76 1000
SP 06:00:00 TS -18.43 147.60 1001 1001
SP 08:00:00 TS -18.42 147.45 1001 1001
SP 09:00:00 TS -18.41 147.42 1001
SP 11:00:00 TS -18.38 147.41 1001 1001
SP 12:00:00 TS -18.38 147.41 1001
SP 15:00:00 TS -18.38 147.41 1001
SP 17:00:00 TS -18.39 147.42 1002 1002
SP 18:00:00 TS -18.42 147.43 1002
SP 21:00:00 TS -18.50 147.43 1002
SP 23:00:00 TS -18.56 147.39 1002 1002
SP 1960-03-09 00:00:00 TS -18.61 147.39 1002
SP 03:00:00 TS -18.67 147.29 1002
SP 05:00:00 TS -18.69 147.19 1002 1002
SP 06:00:00 TS -18.71 147.11 1002
SP 09:00:00 NR -18.71 146.77 1003
SP 11:00:00 NR -18.70 146.50 1005 1005

Source Information

Agency Information
USA bsh161960.txt
TOKYO
CMA
HKO
NEWDELHI
REUNION
BOM IDCKMSTM0S.csv:Line=2984:unnamed
NADI
WELLINGTON
DS824 s_hem.dat:793:16P
TD9636 cons_worldwide_trop_cyclone_18710101-19891231-006:Line=5614
TD9635
NEUMANN
MLC

All available IBTrACS Data

SEASON BASIN SUBBASIN ISO_TIME_________ NATURE LAT LON WMO PRES WMO AGENCY DIST2LAND LANDFALL IFLAG USA AGENCY USA ATCF_ID USA LAT USA LON USA SSHS BOM LAT BOM LON BOM PRES DS824 LAT DS824 LON DS824 STAGE TD9636 LAT TD9636 LON TD9636 STAGE STORM SPEED STORM DIR
Year degrees north degrees east mb km km degrees north degrees east 1 degrees north degrees east mb degrees north degrees east degrees north degrees east kts degrees
1960 SP EA 1960-03-03 11:00:00 NR -13.50 154.50 1003 bom 525 525 ______O_______ -1 -13.50 154.50 1003 1 0
1960 SP EA 12:00:00 TS -13.52 154.50 525 525 ______P_______ -1 -13.54 154.50 1003 2 189
1960 SP EA 15:00:00 TS -13.62 154.49 532 532 ______P_______ -1 -13.64 154.49 1003 2 0
1960 SP EA 18:00:00 TS -13.71 154.48 539 539 ______P_______ -1 -13.73 154.49 1003 1 184
1960 SP EA 21:00:00 TS -13.77 154.49 546 539 ______P_______ -1 -13.78 154.49 1003 1 0
1960 SP EA 23:00:00 TS -13.64 154.47 1003 bom 532 510 ______O___O___ -1 -13.80 154.50 1003 -12.40 154.30 1 8 353
1960 SP EA 1960-03-04 00:00:00 TS -13.39 154.44 510 503 O_____P__OP___ jtwc_sh SH161960 -12.60 154.30 -1 -13.80 154.51 1002 -12.60 154.30 TC -12.54 154.32 1 3 0
1960 SP EA 03:00:00 TS -13.42 154.47 518 518 P_____P__PP___ SH161960 -13.01 154.42 -1 -13.79 154.53 1002 -13.01 154.42 TC -12.97 154.39 1 2 159
1960 SP EA 06:00:00 TS -13.58 154.51 532 532 O_____P__OP___ jtwc_sh SH161960 -13.40 154.50 -1 -13.79 154.54 1002 -13.40 154.50 TC -13.38 154.43 1 4 177
1960 SP EA 09:00:00 TS -13.82 154.50 546 546 P_____P__PP___ SH161960 -13.76 154.49 -1 -13.88 154.53 1002 -13.76 154.49 TC -13.76 154.43 1 5 185
1960 SP EA 11:00:00 TS -14.00 154.46 1002 bom 561 561 P_____O__PO___ SH161960 -13.99 154.44 -1 -14.00 154.50 1002 -13.99 154.44 TC -14.00 154.40 1 6 193
1960 SP EA 12:00:00 TS -14.10 154.43 561 561 O_____P__OP___ jtwc_sh SH161960 -14.10 154.40 -1 -14.10 154.48 1001 -14.10 154.40 TC -14.11 154.37 1 7 197
1960 SP EA 15:00:00 TS -14.44 154.32 577 577 P_____P__PP___ SH161960 -14.43 154.27 -1 -14.46 154.40 1000 -14.43 154.27 TC -14.42 154.26 1 7 202
1960 SP EA 17:00:00 TS -14.65 154.21 1000 bom 587 587 P_____O__PP___ SH161960 -14.62 154.16 -1 -14.70 154.30 1000 -14.62 154.16 TC -14.60 154.16 1 7 209
1960 SP EA 18:00:00 TS -14.74 154.15 589 589 O_____P__OP___ jtwc_sh SH161960 -14.70 154.10 -1 -14.80 154.23 1000 -14.70 154.10 TC -14.68 154.10 1 6 221
1960 SP EA 21:00:00 TS -14.95 153.93 602 596 P_____P__PP___ SH161960 -14.88 153.90 -1 -15.07 153.97 1000 -14.88 153.90 TC -14.89 153.92 1 6 228
1960 SP EA 23:00:00 TS -15.06 153.78 1000 bom 605 599 P_____O__PO___ SH161960 -14.96 153.76 -1 -15.20 153.80 1000 -14.96 153.76 TC -15.00 153.80 1 5 234
1960 SP EA 1960-03-05 00:00:00 TS -15.10 153.72 599 599 O_____P__OP___ jtwc_sh SH161960 -15.00 153.70 -1 -15.25 153.74 1000 -15.00 153.70 TC -15.05 153.75 1 4 234
1960 SP EA 03:00:00 TS -15.21 153.56 603 597 P_____P__PP___ SH161960 -15.11 153.55 -1 -15.35 153.59 1000 -15.11 153.55 TC -15.17 153.59 1 4 236
1960 SP EA 05:00:00 TS -15.27 153.46 1000 bom 607 602 P_____O__PP___ SH161960 -15.17 153.45 -1 -15.40 153.50 1000 -15.17 153.45 TC -15.22 153.47 1 3 240
1960 SP EA 06:00:00 TS -15.29 153.41 602 596 O_____P__OP___ jtwc_sh SH161960 -15.20 153.40 -1 -15.44 153.46 1000 -15.20 153.40 TC -15.24 153.41 1 4 244
1960 SP EA 09:00:00 TS -15.37 153.25 601 597 P_____P__PP___ SH161960 -15.26 153.21 -1 -15.54 153.32 1000 -15.26 153.21 TC -15.28 153.23 1 4 248
1960 SP EA 11:00:00 TS -15.41 153.12 1000 bom 597 597 P_____O__PO___ SH161960 -15.29 153.07 -1 -15.60 153.20 1000 -15.29 153.07 TC -15.30 153.10 1 4 252
1960 SP EA 12:00:00 TS -15.43 153.05 597 592 O_____P__OP___ jtwc_sh SH161960 -15.30 153.00 -1 -15.62 153.13 1000 -15.30 153.00 TC -15.32 153.04 1 4 255
1960 SP EA 15:00:00 TS -15.48 152.83 593 589 P_____P__PP___ SH161960 -15.36 152.81 -1 -15.67 152.87 1000 -15.36 152.81 TC -15.35 152.83 1 4 257
1960 SP EA 17:00:00 TS -15.51 152.68 1000 bom 589 586 P_____O__PP___ SH161960 -15.39 152.67 -1 -15.70 152.70 1000 -15.39 152.67 TC -15.37 152.69 1 4 260
1960 SP EA 18:00:00 TS -15.52 152.61 586 578 O_____P__OP___ jtwc_sh SH161960 -15.40 152.60 -1 -15.72 152.63 1000 -15.40 152.60 TC -15.38 152.61 1 4 262
1960 SP EA 21:00:00 TS -15.55 152.39 578 575 P_____P__PP___ SH161960 -15.41 152.36 -1 -15.77 152.44 1000 -15.41 152.36 TC -15.39 152.37 1 4 264
1960 SP EA 23:00:00 TS -15.56 152.23 1000 bom 582 582 P_____O__PO___ SH161960 -15.40 152.19 -1 -15.80 152.30 1000 -15.40 152.19 TC -15.40 152.20 1 5 265
1960 SP EA 1960-03-06 00:00:00 TS -15.56 152.15 582 572 O_____P__OP___ jtwc_sh SH161960 -15.40 152.10 -1 -15.82 152.26 1000 -15.40 152.10 TC -15.40 152.11 1 5 266
1960 SP EA 03:00:00 TS -15.58 151.89 572 566 P_____P__PP___ SH161960 -15.40 151.81 -1 -15.88 152.09 1000 -15.40 151.81 TC -15.38 151.83 1 6 267
1960 SP EA 05:00:00 TS -15.59 151.66 1000 bom 566 561 P_____O__PP___ SH161960 -15.40 151.60 -1 -15.90 151.80 1000 -15.40 151.60 TC -15.37 151.63 1 7 268
1960 SP EA 06:00:00 TS -15.59 151.52 561 555 O_____P__OP___ jtwc_sh SH161960 -15.40 151.50 -1 -15.90 151.55 1000 -15.40 151.50 TC -15.37 151.53 1 9 269
1960 SP EA 08:00:00 TS -15.60 151.20 1000 bom 555 553 P_____O__PP___ SH161960 -15.39 151.31 -1 -15.90 151.00 1000 -15.39 151.31 TC -15.37 151.32 1 9 268
1960 SP EA 09:00:00 TS -15.61 151.05 553 540 P_____P__PP___ SH161960 -15.38 151.21 -1 -15.93 150.77 1000 -15.38 151.21 TC -15.37 151.21 1 8 265
1960 SP EA 11:00:00 TS -15.63 150.77 1000 bom 540 530 P_____O__PO___ SH161960 -15.39 151.01 -1 -16.00 150.40 1000 -15.39 151.01 TC -15.40 151.00 1 8 264
1960 SP EA 12:00:00 TS -15.64 150.65 530 496 O_____P__OP___ jtwc_sh SH161960 -15.40 150.90 -1 -16.01 150.29 1000 -15.40 150.90 TC -15.42 150.89 1 6 263
1960 SP EA 15:00:00 TS -15.68 150.37 496 476 P_____P__PP___ SH161960 -15.47 150.55 -1 -15.99 150.15 1000 -15.47 150.55 TC -15.48 150.53 1 5 259
1960 SP EA 17:00:00 TS -15.73 150.21 1000 bom 476 462 P_____O__PP___ SH161960 -15.55 150.31 -1 -16.00 150.10 1000 -15.55 150.31 TC -15.55 150.30 1 5 251
1960 SP EA 18:00:00 TS -15.76 150.12 462 452 O_____P__OP___ jtwc_sh SH161960 -15.60 150.20 -1 -16.03 150.02 1000 -15.60 150.20 TC -15.60 150.18 1 6 243
1960 SP EA 20:00:00 TS -15.85 149.95 1000 bom 438 438 P_____O__PP___ SH161960 -15.71 149.97 -1 -16.10 149.90 1000 -15.71 149.97 TC -15.70 149.97 1 5 239
1960 SP EA 21:00:00 TS -15.90 149.88 438 424 P_____P__PP___ SH161960 -15.77 149.86 -1 -16.12 149.89 1000 -15.77 149.86 TC -15.76 149.87 1 5 226
1960 SP EA 23:00:00 TS -16.03 149.76 1000 bom 424 410 P_____O__PO___ SH161960 -15.92 149.67 -1 -16.20 149.90 1000 -15.92 149.67 TC -15.90 149.70 1 5 219
1960 SP EA 1960-03-07 00:00:00 TS -16.11 149.70 410 388 O_____P__OP___ jtwc_sh SH161960 -16.00 149.60 -1 -16.28 149.88 1000 -16.00 149.60 TC -15.99 149.64 1 6 204
1960 SP EA 03:00:00 TS -16.42 149.57 388 372 P_____P__PP___ SH161960 -16.28 149.48 -1 -16.64 149.73 1000 -16.28 149.48 TC -16.29 149.51 1 7 201
1960 SP EA 05:00:00 TS -16.65 149.49 1000 bom 369 369 P_____O__PP___ SH161960 -16.49 149.43 -1 -16.90 149.60 1000 -16.49 149.43 TC -16.51 149.45 1 7 198
1960 SP EA 06:00:00 TS -16.77 149.45 365 326 O_____P__OP___ jtwc_sh SH161960 -16.60 149.40 -1 -17.01 149.54 1000 -16.60 149.40 TC -16.63 149.42 1 7 201
1960 SP EA 09:00:00 TS -17.10 149.31 326 302 P_____P__PP___ SH161960 -16.95 149.29 -1 -17.31 149.35 1000 -16.95 149.29 TC -16.98 149.31 1 7 205
1960 SP EA 11:00:00 TS -17.32 149.19 1000 bom 302 286 P_____O__PO___ SH161960 -17.19 149.18 -1 -17.50 149.20 1000 -17.19 149.18 TC -17.20 149.20 1 8 212
1960 SP EA 12:00:00 TS -17.42 149.10 286 240 O_____P__OP___ jtwc_sh SH161960 -17.30 149.10 -1 -17.59 149.11 1000 -17.30 149.10 TC -17.30 149.11 1 8 223
1960 SP EA 15:00:00 TS -17.72 148.79 240 210 P_____P__PP___ SH161960 -17.63 148.77 -1 -17.85 148.81 1000 -17.63 148.77 TC -17.61 148.78 1 8 228
1960 SP EA 17:00:00 TS -17.89 148.56 1000 bom 210 194 P_____O__PP___ SH161960 -17.82 148.52 -1 -18.00 148.60 1000 -17.82 148.52 TC -17.79 148.54 1 8 232
1960 SP EA 18:00:00 TS -17.97 148.44 188 158 O_____P__OP___ jtwc_sh SH161960 -17.90 148.40 -1 -18.08 148.49 1000 -17.90 148.40 TC -17.88 148.42 1 7 236
1960 SP EA 21:00:00 TS -18.17 148.14 153 138 P_____P__PP___ SH161960 -18.09 148.12 -1 -18.29 148.18 1000 -18.09 148.12 TC -18.09 148.09 1 7 238
1960 SP EA 23:00:00 TS -18.26 147.96 1000 bom 138 133 P_____O__PO___ SH161960 -18.17 147.97 -1 -18.40 148.00 1000 -18.17 147.97 TC -18.20 147.90 1 5 239
1960 SP EA 1960-03-08 00:00:00 TS -18.30 147.90 133 119 O_____P__OP___ jtwc_sh SH161960 -18.20 147.90 -1 -18.45 147.97 1000 -18.20 147.90 TC -18.24 147.84 1 4 237
1960 SP EA 03:00:00 TS -18.39 147.76 119 113 P_____P__PP___ SH161960 -18.27 147.72 -1 -18.56 147.92 1000 -18.27 147.72 TC -18.31 147.69 1 3 246
1960 SP EA 06:00:00 TS -18.43 147.60 1001 bom 113 112 O_____O__OP___ jtwc_sh SH161960 -18.30 147.60 -1 -18.60 147.60 1001 -18.30 147.60 TC -18.33 147.60 1 4 263
1960 SP EA 08:00:00 TS -18.42 147.45 1001 bom 109 109 P_____O__PP___ SH161960 -18.31 147.56 -1 -18.60 147.10 1001 -18.31 147.56 TC -18.32 147.56 1 3 274
1960 SP EA 09:00:00 TS -18.41 147.42 109 109 P_____P__PP___ SH161960 -18.31 147.54 -1 -18.57 147.05 1001 -18.31 147.54 TC -18.31 147.54 1 1 314
1960 SP EA 11:00:00 TS -18.38 147.41 1001 bom 109 109 P_____O__PO___ SH161960 -18.30 147.52 -1 -18.50 147.20 1001 -18.30 147.52 TC -18.30 147.50 1 1 342
1960 SP EA 12:00:00 TS -18.38 147.41 109 109 O_____P__OP___ jtwc_sh SH161960 -18.30 147.50 -1 -18.48 147.25 1001 -18.30 147.50 TC -18.30 147.48 1 0 0
1960 SP EA 15:00:00 TS -18.38 147.41 109 109 P_____P__PP___ SH161960 -18.30 147.42 -1 -18.48 147.42 1001 -18.30 147.42 TC -18.29 147.41 1 0 0
1960 SP EA 17:00:00 TS -18.39 147.42 1002 bom 109 109 P_____O__PP___ SH161960 -18.30 147.34 -1 -18.50 147.50 1002 -18.30 147.34 TC -18.29 147.36 1 1 0
1960 SP EA 18:00:00 TS -18.42 147.43 109 98 O_____P__OP___ jtwc_sh SH161960 -18.30 147.30 -1 -18.51 147.51 1002 -18.30 147.30 TC -18.29 147.34 1 2 0
1960 SP EA 21:00:00 TS -18.50 147.43 98 88 ______P___P___ SH161960 -1 -18.56 147.46 1002 TC -18.29 147.26 1 2 200
1960 SP EA 23:00:00 TS -18.56 147.39 1002 bom 88 88 ______O___O___ SH161960 -1 -18.60 147.40 1002 TC -18.30 147.20 2 2 203
1960 SP EA 1960-03-09 00:00:00 TS -18.61 147.39 88 74 ______P_______ -1 -18.62 147.39 1002 2 2 221
1960 SP EA 03:00:00 TS -18.67 147.29 74 69 ______P_______ -1 -18.67 147.31 1002 2 3 247
1960 SP EA 05:00:00 TS -18.69 147.19 1002 bom 69 64 ______O_______ -1 -18.70 147.20 1002 2 3 257
1960 SP EA 06:00:00 TS -18.71 147.11 64 52 ______P_______ -1 -18.71 147.12 1002 2 6 268
1960 SP EA 09:00:00 NR -18.71 146.77 52 21 ______P_______ -1 -18.71 146.77 1003 2 7 271
1960 SP EA 11:00:00 NR -18.70 146.50 1005 bom 21 ______O_______ -1 -18.70 146.50 1005 8 272